createdAt,value
2023-05-18T00:00:03.359Z,0.00
2023-05-18T00:01:02.444Z,0.00
2023-05-18T00:02:02.402Z,0.00
2023-05-18T00:03:02.451Z,0.00
2023-05-18T00:04:02.501Z,0.00
2023-05-18T00:05:03.285Z,0.00
2023-05-18T00:06:02.366Z,0.00
2023-05-18T00:07:02.303Z,0.00
2023-05-18T00:08:02.341Z,0.00
2023-05-18T00:09:02.353Z,0.00
2023-05-18T00:10:03.263Z,0.00
2023-05-18T00:11:02.289Z,0.00
2023-05-18T00:12:02.294Z,0.00
2023-05-18T00:13:02.288Z,0.00
2023-05-18T00:14:02.254Z,0.00
2023-05-18T00:15:02.364Z,0.00
2023-05-18T00:16:03.307Z,0.00
2023-05-18T00:17:02.261Z,0.00
2023-05-18T00:18:02.282Z,0.00
2023-05-18T00:19:02.235Z,0.00
2023-05-18T00:20:02.160Z,0.00
2023-05-18T00:21:02.423Z,0.00
2023-05-18T00:22:03.045Z,0.00
2023-05-18T00:23:02.214Z,0.00
2023-05-18T00:24:02.093Z,0.00
2023-05-18T00:25:02.119Z,0.00
2023-05-18T00:26:02.113Z,0.00
2023-05-18T00:27:02.146Z,0.00
2023-05-18T00:28:03.072Z,0.00
2023-05-18T00:29:02.085Z,0.00
2023-05-18T00:30:02.031Z,0.00
2023-05-18T00:31:02.049Z,0.00
2023-05-18T00:32:02.180Z,0.00
2023-05-18T00:33:02.241Z,0.00
2023-05-18T00:34:02.934Z,0.00
2023-05-18T00:35:01.987Z,0.00
2023-05-18T00:36:01.965Z,0.00
2023-05-18T00:37:01.976Z,0.00
2023-05-18T00:38:01.910Z,0.00
2023-05-18T00:39:02.897Z,0.00
2023-05-18T00:40:01.962Z,0.00
2023-05-18T00:41:01.928Z,0.00
2023-05-18T00:42:01.934Z,0.00
2023-05-18T00:43:02.228Z,0.00
2023-05-18T00:44:01.849Z,0.00
2023-05-18T00:45:02.771Z,0.00
2023-05-18T00:46:01.911Z,0.00
2023-05-18T00:47:01.839Z,0.00
2023-05-18T00:48:01.858Z,0.00
2023-05-18T00:49:01.873Z,0.00
2023-05-18T00:50:02.703Z,0.00
2023-05-18T00:51:01.797Z,0.00
2023-05-18T00:52:01.775Z,0.00
2023-05-18T00:53:02.287Z,0.00
2023-05-18T00:54:01.723Z,0.00
2023-05-18T00:55:01.725Z,0.00
2023-05-18T00:56:02.718Z,0.00
2023-05-18T00:57:01.698Z,0.00
2023-05-18T00:58:01.676Z,0.00
2023-05-18T00:59:01.651Z,0.00
2023-05-18T01:00:01.661Z,0.00
2023-05-18T01:01:01.686Z,0.00
2023-05-18T01:02:02.680Z,0.00
2023-05-18T01:03:02.257Z,0.00
2023-05-18T01:04:01.656Z,0.00
2023-05-18T01:05:01.610Z,0.00
2023-05-18T01:06:01.575Z,0.00
2023-05-18T01:07:01.549Z,0.00
2023-05-18T01:08:02.495Z,0.00
2023-05-18T01:09:01.562Z,0.00
2023-05-18T01:10:01.559Z,0.00
2023-05-18T01:11:01.531Z,0.00
2023-05-18T01:12:01.517Z,0.00
2023-05-18T01:13:02.464Z,0.00
2023-05-18T01:14:01.466Z,0.00
2023-05-18T01:15:01.457Z,0.00
2023-05-18T01:16:01.456Z,0.00
2023-05-18T01:17:01.468Z,0.00
2023-05-18T01:18:02.435Z,0.00
2023-05-18T01:19:01.452Z,0.00
2023-05-18T01:20:01.420Z,0.00
2023-05-18T01:21:01.450Z,0.00
2023-05-18T01:22:01.408Z,0.00
2023-05-18T01:23:02.415Z,0.00
2023-05-18T01:24:01.349Z,0.00
2023-05-18T01:25:01.330Z,0.00
2023-05-18T01:26:01.344Z,0.00
2023-05-18T01:27:01.304Z,0.00
2023-05-18T01:28:02.224Z,0.00
2023-05-18T01:29:01.318Z,0.00
2023-05-18T01:30:01.283Z,0.00
2023-05-18T01:31:01.295Z,0.00
2023-05-18T01:32:01.281Z,0.00
2023-05-18T01:33:02.559Z,0.00
2023-05-18T01:34:01.235Z,0.00
2023-05-18T01:35:01.240Z,0.00
2023-05-18T01:36:01.185Z,0.00
2023-05-18T01:37:01.220Z,0.00
2023-05-18T01:38:02.157Z,0.00
2023-05-18T01:39:01.165Z,0.00
2023-05-18T01:40:01.234Z,0.00
2023-05-18T01:41:01.144Z,0.00
2023-05-18T01:42:01.118Z,0.00
2023-05-18T01:43:02.614Z,0.00
2023-05-18T01:44:01.157Z,0.00
2023-05-18T01:45:01.079Z,0.00
2023-05-18T01:46:01.104Z,0.00
2023-05-18T01:47:01.055Z,0.00
2023-05-18T01:48:02.024Z,0.00
2023-05-18T01:49:01.059Z,0.00
2023-05-18T01:50:01.059Z,0.00
2023-05-18T01:51:01.009Z,0.00
2023-05-18T01:52:01.010Z,0.00
2023-05-18T01:53:00.982Z,0.00
2023-05-18T01:54:01.868Z,0.00
2023-05-18T01:55:00.936Z,0.00
2023-05-18T01:56:00.922Z,0.00
2023-05-18T01:57:01.292Z,0.00
2023-05-18T01:58:00.912Z,0.00
2023-05-18T01:59:01.864Z,0.00
2023-05-18T02:00:00.876Z,0.00
2023-05-18T02:01:00.865Z,0.00
2023-05-18T02:02:00.950Z,0.00
2023-05-18T02:03:00.915Z,0.00
2023-05-18T02:04:01.917Z,0.00
2023-05-18T02:05:00.867Z,0.00
2023-05-18T02:06:00.795Z,0.00
2023-05-18T02:07:00.799Z,0.00
2023-05-18T02:08:00.790Z,0.00
2023-05-18T02:09:01.688Z,0.00
2023-05-18T02:10:00.792Z,0.00
2023-05-18T02:11:00.729Z,0.00
2023-05-18T02:12:00.732Z,0.00
2023-05-18T02:13:00.741Z,0.00
2023-05-18T02:14:00.716Z,0.00
2023-05-18T02:15:01.600Z,0.00
2023-05-18T02:16:00.761Z,0.00
2023-05-18T02:17:00.670Z,0.00
2023-05-18T02:18:00.699Z,0.00
2023-05-18T02:19:00.714Z,0.00
2023-05-18T02:20:00.649Z,0.00
2023-05-18T02:21:01.523Z,0.00
2023-05-18T02:22:00.627Z,0.00
2023-05-18T02:23:00.583Z,0.00
2023-05-18T02:24:00.561Z,0.00
2023-05-18T02:25:00.548Z,0.00
2023-05-18T02:26:00.532Z,0.00
2023-05-18T02:27:01.548Z,0.00
2023-05-18T02:28:00.537Z,0.00
2023-05-18T02:29:00.491Z,0.00
2023-05-18T02:30:00.579Z,0.00
2023-05-18T02:31:00.482Z,0.00
2023-05-18T02:32:00.553Z,0.00
2023-05-18T02:33:01.456Z,0.00
2023-05-18T02:34:00.456Z,0.00
2023-05-18T02:35:00.444Z,0.00
2023-05-18T02:36:00.425Z,4.00
2023-05-18T02:37:00.393Z,4.00
2023-05-18T02:38:01.382Z,4.00
2023-05-18T02:39:00.409Z,0.00
2023-05-18T02:40:00.344Z,4.00
2023-05-18T02:41:00.361Z,4.00
2023-05-18T02:42:00.367Z,4.00
2023-05-18T02:43:01.239Z,4.00
2023-05-18T02:44:00.352Z,4.00
2023-05-18T02:45:00.328Z,4.00
2023-05-18T02:46:00.304Z,8.00
2023-05-18T02:47:00.271Z,8.00
2023-05-18T02:48:01.238Z,8.00
2023-05-18T02:49:00.257Z,8.00
2023-05-18T02:50:00.242Z,12.00
2023-05-18T02:51:00.246Z,12.00
2023-05-18T02:52:00.260Z,12.00
2023-05-18T02:53:01.152Z,16.00
2023-05-18T02:54:00.198Z,16.00
2023-05-18T02:55:00.182Z,20.00
2023-05-18T02:56:00.176Z,24.00
2023-05-18T02:57:00.148Z,28.00
2023-05-18T02:58:00.132Z,28.00
2023-05-18T02:59:01.073Z,32.00
2023-05-18T03:00:00.140Z,36.00
2023-05-18T03:01:00.175Z,40.00
2023-05-18T03:02:00.175Z,40.00
2023-05-18T03:03:00.191Z,44.00
2023-05-18T03:04:00.095Z,48.00
2023-05-18T03:05:01.018Z,52.00
2023-05-18T03:06:00.038Z,56.00
2023-05-18T03:07:00.080Z,64.00
2023-05-18T03:08:00.033Z,68.00
2023-05-18T03:08:59.989Z,76.00
2023-05-18T03:10:00.096Z,80.00
2023-05-18T03:11:00.947Z,88.00
2023-05-18T03:11:59.962Z,96.00
2023-05-18T03:12:59.965Z,100.00
2023-05-18T03:13:59.934Z,112.00
2023-05-18T03:14:59.947Z,116.00
2023-05-18T03:15:59.904Z,124.00
2023-05-18T03:17:00.876Z,132.00
2023-05-18T03:18:00.011Z,140.00
2023-05-18T03:18:59.886Z,148.00
2023-05-18T03:19:59.865Z,160.00
2023-05-18T03:20:59.853Z,172.00
2023-05-18T03:22:00.793Z,184.00
2023-05-18T03:22:59.841Z,192.00
2023-05-18T03:23:59.814Z,204.00
2023-05-18T03:24:59.793Z,216.00
2023-05-18T03:25:59.798Z,228.00
2023-05-18T03:26:59.801Z,244.00
2023-05-18T03:28:00.691Z,256.00
2023-05-18T03:28:59.747Z,272.00
2023-05-18T03:29:59.736Z,284.00
2023-05-18T03:30:59.763Z,300.00
2023-05-18T03:31:59.716Z,316.00
2023-05-18T03:33:00.712Z,328.00
2023-05-18T03:33:59.711Z,348.00
2023-05-18T03:34:59.658Z,360.00
2023-05-18T03:35:59.648Z,376.00
2023-05-18T03:36:59.651Z,396.00
2023-05-18T03:37:59.649Z,412.00
2023-05-18T03:39:00.565Z,424.00
2023-05-18T03:39:59.652Z,440.00
2023-05-18T03:40:59.603Z,460.00
2023-05-18T03:41:59.558Z,476.00
2023-05-18T03:42:59.611Z,492.00
2023-05-18T03:44:00.480Z,508.00
2023-05-18T03:44:59.561Z,524.00
2023-05-18T03:45:59.554Z,540.00
2023-05-18T03:46:59.523Z,556.00
2023-05-18T03:47:59.536Z,568.00
2023-05-18T03:49:00.448Z,580.00
2023-05-18T03:49:59.494Z,592.00
2023-05-18T03:50:59.496Z,604.00
2023-05-18T03:51:59.454Z,616.00
2023-05-18T03:52:59.453Z,624.00
2023-05-18T03:53:59.464Z,640.00
2023-05-18T03:55:00.379Z,648.00
2023-05-18T03:55:59.399Z,660.00
2023-05-18T03:56:59.393Z,668.00
2023-05-18T03:57:59.412Z,680.00
2023-05-18T03:58:59.397Z,684.00
2023-05-18T03:59:59.358Z,696.00
2023-05-18T04:01:00.264Z,716.00
2023-05-18T04:01:59.345Z,736.00
2023-05-18T04:02:59.422Z,736.00
2023-05-18T04:03:59.354Z,740.00
2023-05-18T04:04:59.298Z,744.00
2023-05-18T04:06:00.187Z,748.00
2023-05-18T04:06:59.242Z,756.00
2023-05-18T04:07:59.278Z,764.00
2023-05-18T04:08:59.232Z,768.00
2023-05-18T04:09:59.243Z,776.00
2023-05-18T04:10:59.215Z,784.00
2023-05-18T04:12:00.168Z,788.00
2023-05-18T04:12:59.171Z,796.00
2023-05-18T04:13:59.173Z,804.00
2023-05-18T04:14:59.152Z,808.00
2023-05-18T04:15:59.162Z,812.00
2023-05-18T04:16:59.173Z,820.00
2023-05-18T04:18:00.097Z,824.00
2023-05-18T04:18:59.127Z,828.00
2023-05-18T04:19:59.077Z,836.00
2023-05-18T04:20:59.077Z,840.00
2023-05-18T04:21:59.102Z,848.00
2023-05-18T04:23:00.015Z,852.00
2023-05-18T04:23:59.044Z,852.00
2023-05-18T04:24:59.045Z,856.00
2023-05-18T04:25:59.019Z,860.00
2023-05-18T04:26:59.007Z,864.00
2023-05-18T04:27:58.994Z,868.00
2023-05-18T04:28:59.914Z,876.00
2023-05-18T04:29:58.986Z,896.00
2023-05-18T04:30:58.971Z,920.00
2023-05-18T04:31:58.988Z,932.00
2023-05-18T04:32:58.992Z,936.00
2023-05-18T04:33:58.924Z,940.00
2023-05-18T04:34:59.903Z,944.00
2023-05-18T04:35:58.905Z,948.00
2023-05-18T04:36:58.888Z,960.00
2023-05-18T04:37:58.860Z,968.00
2023-05-18T04:38:58.891Z,976.00
2023-05-18T04:39:58.891Z,988.00
2023-05-18T04:40:59.837Z,992.00
2023-05-18T04:41:58.854Z,1000.00
2023-05-18T04:42:58.853Z,1008.00
2023-05-18T04:43:58.835Z,1012.00
2023-05-18T04:44:58.783Z,1016.00
2023-05-18T04:45:59.951Z,1024.00
2023-05-18T04:46:58.736Z,1028.00
2023-05-18T04:47:58.909Z,1032.00
2023-05-18T04:48:58.708Z,1036.00
2023-05-18T04:49:58.761Z,1040.00
2023-05-18T04:50:59.682Z,1044.00
2023-05-18T04:51:58.682Z,1048.00
2023-05-18T04:52:58.698Z,1052.00
2023-05-18T04:53:58.660Z,1064.00
2023-05-18T04:54:58.704Z,1068.00
2023-05-18T04:55:59.622Z,1080.00
2023-05-18T04:56:58.659Z,1084.00
2023-05-18T04:57:58.646Z,1092.00
2023-05-18T04:58:58.614Z,1100.00
2023-05-18T04:59:58.609Z,1108.00
2023-05-18T05:00:59.617Z,1112.00
2023-05-18T05:01:58.635Z,1120.00
2023-05-18T05:02:58.635Z,1124.00
2023-05-18T05:03:59.881Z,1136.00
2023-05-18T05:04:58.513Z,1140.00
2023-05-18T05:05:58.532Z,1148.00
2023-05-18T05:06:59.446Z,1152.00
2023-05-18T05:07:58.468Z,1156.00
2023-05-18T05:08:58.478Z,1164.00
2023-05-18T05:09:58.473Z,1172.00
2023-05-18T05:10:58.451Z,1176.00
2023-05-18T05:11:58.459Z,1180.00
2023-05-18T05:12:59.364Z,1184.00
2023-05-18T05:13:58.423Z,1188.00
2023-05-18T05:14:58.424Z,1196.00
2023-05-18T05:15:58.399Z,1200.00
2023-05-18T05:16:58.366Z,1208.00
2023-05-18T05:17:59.347Z,1212.00
2023-05-18T05:18:58.368Z,1216.00
2023-05-18T05:19:58.339Z,1224.00
2023-05-18T05:20:58.353Z,1228.00
2023-05-18T05:21:58.331Z,1232.00
2023-05-18T05:22:59.311Z,1236.00
2023-05-18T05:23:58.370Z,1244.00
2023-05-18T05:24:58.265Z,1248.00
2023-05-18T05:25:58.256Z,1252.00
2023-05-18T05:26:58.222Z,1256.00
2023-05-18T05:27:58.228Z,1264.00
2023-05-18T05:28:59.158Z,1268.00
2023-05-18T05:29:58.205Z,1272.00
2023-05-18T05:30:58.173Z,1280.00
2023-05-18T05:31:58.260Z,1284.00
2023-05-18T05:32:58.195Z,1288.00
2023-05-18T05:33:58.146Z,1292.00
2023-05-18T05:34:59.075Z,1300.00
2023-05-18T05:35:58.114Z,1304.00
2023-05-18T05:36:58.121Z,1312.00
2023-05-18T05:37:58.129Z,1316.00
2023-05-18T05:38:58.109Z,1324.00
2023-05-18T05:39:58.989Z,1328.00
2023-05-18T05:40:58.088Z,1332.00
2023-05-18T05:41:58.106Z,1336.00
2023-05-18T05:42:58.033Z,1344.00
2023-05-18T05:43:58.020Z,1348.00
2023-05-18T05:44:58.008Z,1352.00
2023-05-18T05:45:58.986Z,1356.00
2023-05-18T05:46:58.028Z,1360.00
2023-05-18T05:47:58.020Z,1364.00
2023-05-18T05:48:57.957Z,1372.00
2023-05-18T05:49:58.018Z,1376.00
2023-05-18T05:50:58.883Z,1380.00
2023-05-18T05:51:57.933Z,1388.00
2023-05-18T05:52:57.887Z,1392.00
2023-05-18T05:53:57.938Z,1400.00
2023-05-18T05:54:57.903Z,1408.00
2023-05-18T05:55:57.888Z,1420.00
2023-05-18T05:56:58.796Z,1428.00
2023-05-18T05:57:57.938Z,1436.00
2023-05-18T05:58:57.850Z,1452.00
2023-05-18T05:59:57.831Z,1472.00
2023-05-18T06:00:57.882Z,1484.00
2023-05-18T06:01:57.840Z,1504.00
2023-05-18T06:02:58.769Z,1532.00
2023-05-18T06:03:57.800Z,1580.00
2023-05-18T06:04:57.753Z,1620.00
2023-05-18T06:05:57.796Z,1644.00
2023-05-18T06:06:57.718Z,1668.00
2023-05-18T06:07:57.710Z,1680.00
2023-05-18T06:08:58.653Z,1696.00
2023-05-18T06:09:57.692Z,1712.00
2023-05-18T06:10:57.675Z,1728.00
2023-05-18T06:11:57.696Z,1744.00
2023-05-18T06:12:57.691Z,1756.00
2023-05-18T06:13:57.632Z,1768.00
2023-05-18T06:14:58.585Z,1780.00
2023-05-18T06:15:57.666Z,1796.00
2023-05-18T06:16:57.620Z,1808.00
2023-05-18T06:17:57.776Z,1820.00
2023-05-18T06:18:57.729Z,1836.00
2023-05-18T06:19:57.585Z,1852.00
2023-05-18T06:20:58.481Z,1864.00
2023-05-18T06:21:57.508Z,1876.00
2023-05-18T06:22:57.556Z,1888.00
2023-05-18T06:23:57.508Z,1904.00
2023-05-18T06:24:58.527Z,1924.00
2023-05-18T06:25:57.507Z,1936.00
2023-05-18T06:27:03.747Z,1952.00
2023-05-18T06:27:57.492Z,1964.00
2023-05-18T06:28:57.480Z,1984.00
2023-05-18T06:29:57.439Z,2000.00
2023-05-18T06:30:57.426Z,2020.00
2023-05-18T06:31:58.401Z,2036.00
2023-05-18T06:32:57.462Z,2060.00
2023-05-18T06:33:57.410Z,2076.00
2023-05-18T06:34:57.368Z,2092.00
2023-05-18T06:35:57.368Z,2104.00
2023-05-18T06:36:57.361Z,2112.00
2023-05-18T06:37:58.317Z,2136.00
2023-05-18T06:38:57.367Z,2152.00
2023-05-18T06:39:57.325Z,2164.00
2023-05-18T06:40:57.351Z,2172.00
2023-05-18T06:41:57.342Z,2192.00
2023-05-18T06:42:57.290Z,2204.00
2023-05-18T06:43:58.245Z,2220.00
2023-05-18T06:44:57.330Z,2232.00
2023-05-18T06:45:57.265Z,2252.00
2023-05-18T06:46:57.230Z,2280.00
2023-05-18T06:47:57.253Z,2308.00
2023-05-18T06:48:58.138Z,2336.00
2023-05-18T06:49:57.248Z,2364.00
2023-05-18T06:50:57.272Z,2392.00
2023-05-18T06:51:57.193Z,2420.00
2023-05-18T06:52:57.170Z,2444.00
2023-05-18T06:53:57.154Z,2460.00
2023-05-18T06:54:58.052Z,2484.00
2023-05-18T06:55:57.115Z,2516.00
2023-05-18T06:56:57.093Z,2540.00
2023-05-18T06:57:57.089Z,2564.00
2023-05-18T06:58:58.883Z,2592.00
2023-05-18T06:59:58.108Z,2620.00
2023-05-18T07:00:57.040Z,2648.00
2023-05-18T07:01:57.106Z,2680.00
2023-05-18T07:02:57.108Z,2704.00
2023-05-18T07:03:57.020Z,2732.00
2023-05-18T07:04:57.025Z,2756.00
2023-05-18T07:05:57.912Z,2788.00
2023-05-18T07:06:57.027Z,2816.00
2023-05-18T07:07:57.470Z,2848.00
2023-05-18T07:08:56.928Z,2872.00
2023-05-18T07:09:56.936Z,2900.00
2023-05-18T07:10:56.916Z,2700.00
2023-05-18T07:11:57.855Z,2712.00
2023-05-18T07:12:56.969Z,2744.00
2023-05-18T07:13:56.917Z,2772.00
2023-05-18T07:14:56.873Z,2804.00
2023-05-18T07:15:56.914Z,2832.00
2023-05-18T07:16:57.805Z,2868.00
2023-05-18T07:17:57.061Z,2900.00
2023-05-18T07:18:56.865Z,2940.00
2023-05-18T07:19:56.868Z,2976.00
2023-05-18T07:20:56.787Z,3004.00
2023-05-18T07:21:56.777Z,3052.00
2023-05-18T07:22:57.720Z,3084.00
2023-05-18T07:23:56.786Z,3112.00
2023-05-18T07:24:56.753Z,3152.00
2023-05-18T07:25:56.771Z,3192.00
2023-05-18T07:26:58.296Z,3220.00
2023-05-18T07:27:56.733Z,3268.00
2023-05-18T07:29:01.450Z,3560.00
2023-05-18T07:29:56.670Z,3592.00
2023-05-18T07:30:56.718Z,3640.00
2023-05-18T07:31:56.946Z,3688.00
2023-05-18T07:32:56.717Z,3736.00
2023-05-18T07:33:57.552Z,3780.00
2023-05-18T07:34:56.637Z,3824.00
2023-05-18T07:35:56.605Z,3852.00
2023-05-18T07:36:56.632Z,3896.00
2023-05-18T07:37:56.595Z,3944.00
2023-05-18T07:38:57.639Z,3980.00
2023-05-18T07:39:56.551Z,3708.00
2023-05-18T07:40:56.618Z,2536.00
2023-05-18T07:41:56.561Z,3872.00
2023-05-18T07:42:56.513Z,3984.00
2023-05-18T07:43:57.460Z,4100.00
2023-05-18T07:44:56.685Z,4400.00
2023-05-18T07:45:56.467Z,4420.00
2023-05-18T07:46:56.572Z,4388.00
2023-05-18T07:47:56.457Z,4528.00
2023-05-18T07:48:57.398Z,4544.00
2023-05-18T07:49:56.449Z,4604.00
2023-05-18T07:50:56.462Z,4596.00
2023-05-18T07:51:56.400Z,4632.00
2023-05-18T07:52:56.423Z,4688.00
2023-05-18T07:53:56.381Z,2772.00
2023-05-18T07:54:57.285Z,2652.00
2023-05-18T07:55:56.415Z,3508.00
2023-05-18T07:56:58.528Z,4952.00
2023-05-18T07:57:56.307Z,5600.00
2023-05-18T07:58:56.304Z,5664.00
2023-05-18T07:59:56.314Z,5336.00
2023-05-18T08:00:57.215Z,5316.00
2023-05-18T08:01:56.322Z,3972.00
2023-05-18T08:02:56.465Z,4916.00
2023-05-18T08:03:56.330Z,5604.00
2023-05-18T08:04:56.228Z,5096.00
2023-05-18T08:05:56.223Z,4172.00
2023-05-18T08:06:57.177Z,3948.00
2023-05-18T08:07:56.173Z,4772.00
2023-05-18T08:08:56.177Z,4364.00
2023-05-18T08:09:56.166Z,4628.00
2023-05-18T08:10:56.195Z,4624.00
2023-05-18T08:11:57.092Z,4424.00
2023-05-18T08:12:56.144Z,4276.00
2023-05-18T08:13:56.106Z,4300.00
2023-05-18T08:14:56.107Z,4628.00
2023-05-18T08:16:10.463Z,5052.00
2023-05-18T08:16:58.542Z,7428.00
2023-05-18T08:17:56.110Z,10104.00
2023-05-18T08:18:56.131Z,7836.00
2023-05-18T08:19:56.027Z,7880.00
2023-05-18T08:20:56.025Z,8376.00
2023-05-18T08:21:56.933Z,7912.00
2023-05-18T08:22:56.038Z,7660.00
2023-05-18T08:23:56.057Z,7832.00
2023-05-18T08:24:55.986Z,8252.00
2023-05-18T08:25:56.011Z,8544.00
2023-05-18T08:26:56.948Z,11164.00
2023-05-18T08:27:55.983Z,11096.00
2023-05-18T08:28:55.928Z,11412.00
2023-05-18T08:29:55.940Z,11668.00
2023-05-18T08:30:55.920Z,11216.00
2023-05-18T08:31:55.935Z,10812.00
2023-05-18T08:32:56.881Z,10828.00
2023-05-18T08:33:55.901Z,10964.00
2023-05-18T08:34:55.855Z,11056.00
2023-05-18T08:35:55.838Z,9848.00
2023-05-18T08:36:55.838Z,11032.00
2023-05-18T08:37:56.800Z,11396.00
2023-05-18T08:38:55.787Z,7396.00
2023-05-18T08:39:55.842Z,6632.00
2023-05-18T08:40:55.764Z,6176.00
2023-05-18T08:41:55.778Z,6092.00
2023-05-18T08:42:55.730Z,6028.00
2023-05-18T08:43:55.752Z,5904.00
2023-05-18T08:44:55.731Z,6020.00
2023-05-18T08:45:55.717Z,6160.00
2023-05-18T08:46:55.694Z,6480.00
2023-05-18T08:47:55.839Z,6720.00
2023-05-18T08:48:56.631Z,6804.00
2023-05-18T08:49:55.674Z,7120.00
2023-05-18T08:50:55.640Z,7132.00
2023-05-18T08:51:55.609Z,7484.00
2023-05-18T08:52:55.622Z,8640.00
2023-05-18T08:53:55.605Z,7752.00
2023-05-18T08:54:56.531Z,7576.00
2023-05-18T08:55:55.589Z,7344.00
2023-05-18T08:56:55.554Z,7224.00
2023-05-18T08:57:55.556Z,7800.00
2023-05-18T08:58:55.543Z,7812.00
2023-05-18T08:59:55.567Z,7212.00
2023-05-18T09:00:56.494Z,6680.00
2023-05-18T09:01:55.567Z,6384.00
2023-05-18T09:02:55.549Z,5800.00
2023-05-18T09:03:55.465Z,11112.00
2023-05-18T09:04:55.539Z,11788.00
2023-05-18T09:05:56.441Z,12248.00
2023-05-18T09:06:55.431Z,13164.00
2023-05-18T09:07:55.451Z,13768.00
2023-05-18T09:08:55.417Z,13648.00
2023-05-18T09:09:55.406Z,7796.00
2023-05-18T09:10:56.362Z,7616.00
2023-05-18T09:11:55.371Z,7972.00
2023-05-18T09:12:55.375Z,7312.00
2023-05-18T09:13:55.360Z,6788.00
2023-05-18T09:14:55.326Z,6576.00
2023-05-18T09:15:56.334Z,6728.00
2023-05-18T09:16:55.309Z,6696.00
2023-05-18T09:17:55.311Z,6820.00
2023-05-18T09:18:55.343Z,6824.00
2023-05-18T09:19:55.346Z,6776.00
2023-05-18T09:20:56.195Z,6748.00
2023-05-18T09:21:55.248Z,6700.00
2023-05-18T09:22:55.281Z,6864.00
2023-05-18T09:23:55.229Z,7072.00
2023-05-18T09:24:55.284Z,7288.00
2023-05-18T09:25:56.144Z,7460.00
2023-05-18T09:26:56.142Z,7708.00
2023-05-18T09:27:55.193Z,8104.00
2023-05-18T09:28:55.186Z,7932.00
2023-05-18T09:29:55.137Z,7680.00
2023-05-18T09:30:55.135Z,7688.00
2023-05-18T09:31:55.236Z,8220.00
2023-05-18T09:32:56.111Z,8408.00
2023-05-18T09:33:55.173Z,8380.00
2023-05-18T09:34:55.063Z,8232.00
2023-05-18T09:35:55.105Z,8324.00
2023-05-18T09:36:55.061Z,8864.00
2023-05-18T09:37:55.055Z,9572.00
2023-05-18T09:38:55.961Z,9956.00
2023-05-18T09:39:55.004Z,10188.00
2023-05-18T09:40:55.060Z,11700.00
2023-05-18T09:41:55.017Z,16832.00
2023-05-18T09:42:54.978Z,17280.00
2023-05-18T09:43:55.985Z,11960.00
2023-05-18T09:44:54.976Z,10544.00
2023-05-18T09:45:54.954Z,10988.00
2023-05-18T09:46:55.036Z,11184.00
2023-05-18T09:47:54.950Z,12612.00
2023-05-18T09:48:54.936Z,20064.00
2023-05-18T09:49:55.826Z,20288.00
2023-05-18T09:50:54.903Z,11648.00
2023-05-18T09:51:54.877Z,10548.00
2023-05-18T09:52:54.868Z,10240.00
2023-05-18T09:53:56.221Z,10088.00
2023-05-18T09:54:54.847Z,10364.00
2023-05-18T09:55:55.782Z,9540.00
2023-05-18T09:57:08.860Z,9364.00
2023-05-18T09:57:56.314Z,11732.00
2023-05-18T09:58:54.774Z,10896.00
2023-05-18T09:59:55.785Z,16928.00
2023-05-18T10:00:54.821Z,16736.00
2023-05-18T10:01:55.770Z,16288.00
2023-05-18T10:02:54.775Z,15808.00
2023-05-18T10:03:54.775Z,15456.00
2023-05-18T10:04:54.720Z,15584.00
2023-05-18T10:05:54.678Z,15968.00
2023-05-18T10:06:54.680Z,16192.00
2023-05-18T10:07:55.596Z,16384.00
2023-05-18T10:08:55.601Z,16640.00
2023-05-18T10:09:54.688Z,16544.00
2023-05-18T10:10:54.659Z,16576.00
2023-05-18T10:11:54.611Z,17088.00
2023-05-18T10:12:54.634Z,9560.00
2023-05-18T10:13:55.548Z,10180.00
2023-05-18T10:14:54.600Z,10672.00
2023-05-18T10:15:54.583Z,11164.00
2023-05-18T10:17:03.554Z,11032.00
2023-05-18T10:17:56.098Z,11668.00
2023-05-18T10:18:54.605Z,11468.00
2023-05-18T10:19:55.441Z,10964.00
2023-05-18T10:20:54.547Z,10908.00
2023-05-18T10:21:54.559Z,10880.00
2023-05-18T10:22:54.500Z,11492.00
2023-05-18T10:23:54.493Z,11328.00
2023-05-18T10:24:54.473Z,13664.00
2023-05-18T10:25:55.394Z,14860.00
2023-05-18T10:26:56.376Z,10808.00
2023-05-18T10:27:54.466Z,9908.00
2023-05-18T10:28:54.441Z,10796.00
2023-05-18T10:29:54.407Z,26112.00
2023-05-18T10:30:54.439Z,84000.00
2023-05-18T10:31:55.304Z,79872.00
2023-05-18T10:32:54.400Z,74368.00
2023-05-18T10:33:54.353Z,72640.00
2023-05-18T10:34:54.378Z,72352.00
2023-05-18T10:35:54.348Z,76192.00
2023-05-18T10:36:55.245Z,73440.00
2023-05-18T10:37:54.279Z,70272.00
2023-05-18T10:38:54.328Z,73056.00
2023-05-18T10:39:54.288Z,73024.00
2023-05-18T10:40:54.270Z,81312.00
2023-05-18T10:41:55.219Z,82720.00
2023-05-18T10:42:54.231Z,79072.00
2023-05-18T10:43:54.225Z,79232.00
2023-05-18T10:44:54.207Z,79680.00
2023-05-18T10:45:54.289Z,83808.00
2023-05-18T10:46:54.413Z,81792.00
2023-05-18T10:47:55.121Z,78080.00
2023-05-18T10:48:54.160Z,75072.00
2023-05-18T10:49:54.179Z,74304.00
2023-05-18T10:50:54.157Z,62528.00
2023-05-18T10:51:54.143Z,87008.00
2023-05-18T10:52:54.126Z,40032.00
2023-05-18T10:53:56.237Z,38432.00
2023-05-18T10:54:54.165Z,73440.00
2023-05-18T10:55:54.095Z,76800.00
2023-05-18T10:56:54.132Z,64512.00
2023-05-18T10:57:54.104Z,23232.00
2023-05-18T10:58:54.991Z,22624.00
2023-05-18T10:59:54.046Z,33088.00
2023-05-18T11:00:54.040Z,43552.00
2023-05-18T11:01:54.231Z,21728.00
2023-05-18T11:02:54.106Z,46272.00
2023-05-18T11:03:54.933Z,75968.00
2023-05-18T11:04:54.364Z,22880.00
2023-05-18T11:05:54.051Z,53152.00
2023-05-18T11:06:54.061Z,56640.00
2023-05-18T11:07:53.963Z,81504.00
2023-05-18T11:08:53.979Z,74912.00
2023-05-18T11:09:55.026Z,75872.00
2023-05-18T11:10:53.935Z,82688.00
2023-05-18T11:11:53.966Z,77152.00
2023-05-18T11:12:53.921Z,71424.00
2023-05-18T11:13:53.959Z,77792.00
2023-05-18T11:14:54.880Z,71328.00
2023-05-18T11:15:54.037Z,66272.00
2023-05-18T11:16:54.084Z,76352.00
2023-05-18T11:17:53.944Z,81600.00
2023-05-18T11:18:53.899Z,77440.00
2023-05-18T11:19:54.792Z,79072.00
2023-05-18T11:20:53.837Z,77312.00
2023-05-18T11:21:53.897Z,81440.00
2023-05-18T11:22:53.878Z,83552.00
2023-05-18T11:23:53.837Z,78176.00
2023-05-18T11:24:54.796Z,79168.00
2023-05-18T11:25:53.933Z,78528.00
2023-05-18T11:26:53.845Z,86688.00
2023-05-18T11:27:53.857Z,94176.00
2023-05-18T11:28:53.831Z,91200.00
2023-05-18T11:30:07.640Z,87584.00
2023-05-18T11:30:55.263Z,83744.00
2023-05-18T11:31:53.909Z,88896.00
2023-05-18T11:32:53.735Z,91616.00
2023-05-18T11:33:53.741Z,76480.00
2023-05-18T11:34:53.683Z,16704.00
2023-05-18T11:35:54.676Z,19264.00
2023-05-18T11:36:53.658Z,43552.00
2023-05-18T11:37:53.691Z,105312.00
2023-05-18T11:38:53.731Z,102784.00
2023-05-18T11:40:54.605Z,109280.00
2023-05-18T11:41:53.641Z,104160.00
2023-05-18T11:42:53.615Z,95936.00
2023-05-18T11:43:53.597Z,103232.00
2023-05-18T11:44:53.635Z,108128.00
2023-05-18T11:45:55.729Z,107488.00
2023-05-18T11:46:53.581Z,108256.00
2023-05-18T11:47:53.646Z,17504.00
2023-05-18T11:48:53.667Z,16480.00
2023-05-18T11:49:53.561Z,35936.00
2023-05-18T11:50:53.592Z,17600.00
2023-05-18T11:51:55.583Z,13052.00
2023-05-18T11:52:53.527Z,13296.00
2023-05-18T11:53:53.524Z,15264.00
2023-05-18T11:54:53.556Z,19296.00
2023-05-18T11:55:53.547Z,17856.00
2023-05-18T11:56:54.421Z,15168.00
2023-05-18T11:57:53.640Z,12636.00
2023-05-18T11:58:53.722Z,12168.00
2023-05-18T11:59:53.626Z,58592.00
2023-05-18T12:00:53.462Z,15232.00
2023-05-18T12:01:53.468Z,70016.00
2023-05-18T12:02:54.480Z,60448.00
2023-05-18T12:03:53.804Z,69280.00
2023-05-18T12:04:53.492Z,63808.00
2023-05-18T12:05:53.452Z,51072.00
2023-05-18T12:06:53.388Z,54304.00
2023-05-18T12:07:53.426Z,55296.00
2023-05-18T12:09:00.803Z,61440.00
2023-05-18T12:09:53.465Z,66432.00
2023-05-18T12:10:53.461Z,73056.00
2023-05-18T12:11:53.413Z,71552.00
2023-05-18T12:12:53.397Z,70880.00
2023-05-18T12:13:53.309Z,61024.00
2023-05-18T12:14:54.228Z,60448.00
2023-05-18T12:15:53.346Z,63008.00
2023-05-18T12:16:53.342Z,62560.00
2023-05-18T12:17:53.301Z,63584.00
2023-05-18T12:18:53.329Z,66112.00
2023-05-18T12:19:54.162Z,56992.00